createdAt,value
2023-04-14T00:01:28.792Z,3.40
2023-04-14T00:03:37.894Z,4.10
2023-04-14T00:05:46.682Z,3.83
2023-04-14T00:07:55.725Z,4.30
2023-04-14T00:10:05.026Z,4.17
2023-04-14T00:12:13.864Z,3.67
2023-04-14T00:14:24.758Z,3.10
2023-04-14T00:16:33.856Z,3.50
2023-04-14T00:18:42.782Z,4.03
2023-04-14T00:20:51.581Z,3.57
2023-04-14T00:23:00.575Z,3.93
2023-04-14T00:25:09.432Z,3.77
2023-04-14T00:27:18.617Z,3.70
2023-04-14T00:29:29.379Z,3.77
2023-04-14T00:31:38.214Z,3.20
2023-04-14T00:33:47.199Z,3.27
2023-04-14T00:35:56.661Z,4.07
2023-04-14T00:38:05.565Z,4.03
2023-04-14T00:40:14.691Z,3.57
2023-04-14T00:42:23.849Z,3.93
2023-04-14T00:44:33.876Z,5.10
2023-04-14T00:46:43.838Z,3.73
2023-04-14T00:48:52.795Z,3.93
2023-04-14T00:51:02.195Z,3.90
2023-04-14T00:53:11.354Z,3.60
2023-04-14T00:55:21.618Z,3.67
2023-04-14T00:57:31.869Z,4.00
2023-04-14T00:59:41.893Z,4.03
2023-04-14T01:01:51.249Z,3.73
2023-04-14T01:04:00.158Z,4.10
2023-04-14T01:06:09.276Z,3.90
2023-04-14T01:08:18.369Z,3.57
2023-04-14T01:10:30.553Z,4.17
2023-04-14T01:12:57.414Z,3.83
2023-04-14T01:15:12.658Z,3.87
2023-04-14T01:17:23.821Z,3.23
2023-04-14T01:19:39.326Z,3.70
2023-04-14T01:21:49.877Z,3.60
2023-04-14T01:24:07.550Z,3.40
2023-04-14T01:26:21.213Z,3.97
2023-04-14T01:28:40.642Z,3.87
2023-04-14T01:30:57.407Z,3.77
2023-04-14T01:33:09.327Z,3.83
2023-04-14T01:35:21.402Z,3.30
2023-04-14T01:37:31.791Z,4.10
2023-04-14T01:39:42.956Z,3.80
2023-04-14T01:41:54.663Z,3.40
2023-04-14T01:44:04.350Z,3.77
2023-04-14T01:46:16.512Z,3.70
2023-04-14T01:48:27.213Z,4.00
2023-04-14T01:50:36.859Z,4.10
2023-04-14T01:52:47.855Z,3.73
2023-04-14T01:54:57.300Z,3.80
2023-04-14T01:57:07.022Z,2.63
2023-04-14T01:59:17.122Z,4.00
2023-04-14T02:01:28.106Z,4.03
2023-04-14T02:03:39.129Z,3.87
2023-04-14T02:05:48.975Z,4.00
2023-04-14T02:07:58.301Z,3.83
2023-04-14T02:10:08.965Z,3.90
2023-04-14T02:12:19.587Z,3.33
2023-04-14T02:14:29.051Z,3.53
2023-04-14T02:16:38.811Z,2.23
2023-04-14T02:18:49.948Z,3.43
2023-04-14T02:21:00.041Z,3.53
2023-04-14T02:23:08.657Z,3.50
2023-04-14T02:25:17.278Z,3.33
2023-04-14T02:27:32.522Z,3.33
2023-04-14T02:29:44.351Z,3.50
2023-04-14T02:31:56.171Z,3.20
2023-04-14T02:34:08.174Z,3.47
2023-04-14T02:36:19.229Z,4.10
2023-04-14T02:38:31.898Z,3.33
2023-04-14T02:40:41.591Z,3.50
2023-04-14T02:42:53.390Z,3.10
2023-04-14T02:45:04.567Z,3.63
2023-04-14T02:47:15.619Z,3.80
2023-04-14T02:49:26.543Z,3.70
2023-04-14T02:51:37.542Z,2.40
2023-04-14T02:53:46.719Z,3.57
2023-04-14T02:55:55.698Z,3.60
2023-04-14T02:58:04.832Z,4.03
2023-04-14T03:00:14.353Z,4.60
2023-04-14T03:02:24.025Z,3.87
2023-04-14T03:04:35.289Z,3.70
2023-04-14T03:06:44.138Z,3.67
2023-04-14T03:08:53.703Z,3.70
2023-04-14T03:11:03.090Z,3.93
2023-04-14T03:13:12.922Z,3.77
2023-04-14T03:15:22.848Z,3.60
2023-04-14T03:17:32.747Z,4.03
2023-04-14T03:19:43.203Z,3.37
2023-04-14T03:21:55.070Z,3.63
2023-04-14T03:24:04.563Z,3.93
2023-04-14T03:26:14.299Z,3.53
2023-04-14T03:28:27.260Z,3.50
2023-04-14T03:30:37.550Z,3.50
2023-04-14T03:32:49.246Z,4.20
2023-04-14T03:35:01.459Z,3.87
2023-04-14T03:37:11.043Z,4.23
2023-04-14T03:39:20.299Z,3.70
2023-04-14T03:41:29.492Z,4.23
2023-04-14T03:43:38.557Z,4.13
2023-04-14T03:45:48.950Z,4.43
2023-04-14T03:48:02.714Z,3.67
2023-04-14T03:50:16.061Z,4.53
2023-04-14T03:52:25.230Z,4.13
2023-04-14T03:54:34.606Z,4.13
2023-04-14T03:56:45.501Z,4.73
2023-04-14T03:58:55.929Z,4.53
2023-04-14T04:01:05.989Z,4.00
2023-04-14T04:03:16.106Z,4.00
2023-04-14T04:05:26.304Z,4.20
2023-04-14T04:07:35.324Z,3.53
2023-04-14T04:09:44.555Z,4.53
2023-04-14T04:11:54.615Z,4.10
2023-04-14T04:14:05.612Z,4.00
2023-04-14T04:16:16.083Z,4.17
2023-04-14T04:18:25.300Z,4.07
2023-04-14T04:20:36.992Z,4.27
2023-04-14T04:22:46.971Z,4.17
2023-04-14T04:24:56.811Z,3.90
2023-04-14T04:27:09.914Z,4.00
2023-04-14T04:29:23.860Z,4.17
2023-04-14T04:31:33.961Z,4.50
2023-04-14T04:33:43.011Z,4.40
2023-04-14T04:35:54.175Z,3.80
2023-04-14T04:38:02.982Z,3.50
2023-04-14T04:40:12.343Z,3.73
2023-04-14T04:42:20.927Z,4.50
2023-04-14T04:44:29.663Z,3.97
2023-04-14T04:46:54.526Z,4.30
2023-04-14T04:49:03.711Z,4.07
2023-04-14T04:51:14.607Z,4.10
2023-04-14T04:53:23.367Z,4.67
2023-04-14T04:55:31.990Z,4.43
2023-04-14T04:57:40.422Z,3.50
2023-04-14T04:59:49.164Z,4.83
2023-04-14T05:01:58.067Z,4.23
2023-04-14T05:04:07.399Z,4.27
2023-04-14T05:06:17.809Z,4.80
2023-04-14T05:08:26.859Z,4.90
2023-04-14T05:10:36.901Z,4.13
2023-04-14T05:12:45.705Z,4.63
2023-04-14T05:14:54.733Z,4.37
2023-04-14T05:17:03.338Z,4.70
2023-04-14T05:19:12.237Z,4.30
2023-04-14T05:21:22.722Z,5.20
2023-04-14T05:23:31.848Z,4.40
2023-04-14T05:25:41.179Z,4.73
2023-04-14T05:27:49.965Z,4.37
2023-04-14T05:29:58.940Z,4.30
2023-04-14T05:32:08.117Z,4.33
2023-04-14T05:34:16.991Z,4.50
2023-04-14T05:36:27.784Z,3.93
2023-04-14T05:38:40.203Z,4.70
2023-04-14T05:40:49.294Z,4.97
2023-04-14T05:42:58.088Z,4.40
2023-04-14T05:45:07.347Z,4.33
2023-04-14T05:47:16.538Z,5.33
2023-04-14T05:49:25.370Z,3.97
2023-04-14T05:51:36.330Z,4.43
2023-04-14T05:53:45.139Z,4.23
2023-04-14T05:55:53.978Z,4.70
2023-04-14T05:58:02.785Z,4.20
2023-04-14T06:00:12.508Z,4.43
2023-04-14T06:02:21.548Z,4.17
2023-04-14T06:04:31.141Z,4.40
2023-04-14T06:06:42.189Z,4.27
2023-04-14T06:08:51.106Z,3.83
2023-04-14T06:11:02.626Z,4.43
2023-04-14T06:13:11.307Z,3.77
2023-04-14T06:15:20.164Z,3.67
2023-04-14T06:17:29.554Z,4.23
2023-04-14T06:19:38.462Z,4.40
2023-04-14T06:21:49.049Z,3.60
2023-04-14T06:23:57.882Z,3.77
2023-04-14T06:26:07.120Z,3.97
2023-04-14T06:28:16.001Z,3.50
2023-04-14T06:30:25.978Z,3.90
2023-04-14T06:32:34.938Z,4.30
2023-04-14T06:34:43.779Z,4.10
2023-04-14T06:36:57.122Z,3.30
2023-04-14T06:39:06.568Z,3.90
2023-04-14T06:41:15.328Z,2.53
2023-04-14T06:43:24.044Z,4.67
2023-04-14T06:45:32.908Z,3.50
2023-04-14T06:47:41.776Z,3.63
2023-04-14T06:49:50.801Z,3.63
2023-04-14T06:52:01.235Z,3.50
2023-04-14T06:54:10.097Z,3.13
2023-04-14T06:56:18.818Z,2.97
2023-04-14T06:58:27.556Z,2.63
2023-04-14T07:00:36.346Z,3.33
2023-04-14T07:02:45.476Z,3.63
2023-04-14T07:04:54.802Z,3.20
2023-04-14T07:07:05.252Z,3.60
2023-04-14T07:09:14.008Z,3.30
2023-04-14T07:11:22.673Z,3.20
2023-04-14T07:13:31.632Z,3.83
2023-04-14T07:15:40.559Z,3.33
2023-04-14T07:17:49.543Z,3.40
2023-04-14T07:19:58.414Z,3.83
2023-04-14T07:22:09.275Z,3.40
2023-04-14T07:24:18.279Z,2.90
2023-04-14T07:26:27.601Z,3.10
2023-04-14T07:28:37.228Z,4.03
2023-04-14T07:30:46.335Z,3.60
2023-04-14T07:32:55.225Z,3.50
2023-04-14T07:35:04.232Z,3.37
2023-04-14T07:37:16.203Z,3.60
2023-04-14T07:39:25.497Z,3.13
2023-04-14T07:41:34.342Z,3.27
2023-04-14T07:43:43.278Z,2.80
2023-04-14T07:45:52.336Z,3.37
2023-04-14T07:48:01.069Z,3.10
2023-04-14T07:50:10.291Z,3.03
2023-04-14T07:52:20.722Z,2.57
2023-04-14T07:54:29.823Z,2.60
2023-04-14T07:56:38.869Z,3.23
2023-04-14T07:58:48.182Z,3.70
2023-04-14T08:00:57.125Z,3.17
2023-04-14T08:03:06.058Z,3.40
2023-04-14T08:05:15.384Z,3.10
2023-04-14T08:07:25.922Z,3.10
2023-04-14T08:09:34.926Z,3.60
2023-04-14T08:11:43.629Z,3.47
2023-04-14T08:13:53.167Z,3.30
2023-04-14T08:16:02.418Z,2.93
2023-04-14T08:18:11.352Z,3.40
2023-04-14T08:20:20.578Z,3.43
2023-04-14T08:22:30.872Z,3.50
2023-04-14T08:24:39.510Z,3.40
2023-04-14T08:26:48.217Z,3.57
2023-04-14T08:28:56.998Z,3.47
2023-04-14T08:31:05.853Z,3.50
2023-04-14T08:33:14.464Z,3.30
2023-04-14T08:35:36.350Z,3.37
2023-04-14T08:37:52.319Z,3.50
2023-04-14T08:40:01.593Z,3.13
2023-04-14T08:42:10.393Z,3.13
2023-04-14T08:44:19.356Z,4.10
2023-04-14T08:46:29.589Z,3.73
2023-04-14T08:48:40.512Z,3.17
2023-04-14T08:50:54.943Z,3.13
2023-04-14T08:53:05.920Z,2.90
2023-04-14T08:55:16.105Z,3.60
2023-04-14T08:57:26.438Z,3.43
2023-04-14T08:59:35.463Z,3.87
2023-04-14T09:01:44.279Z,3.10
2023-04-14T09:03:53.445Z,3.17
2023-04-14T09:06:02.649Z,3.10
2023-04-14T09:08:13.649Z,3.07
2023-04-14T09:10:23.961Z,3.20
2023-04-14T09:12:35.177Z,3.00
2023-04-14T09:14:49.094Z,2.53
2023-04-14T09:16:58.066Z,3.20
2023-04-14T09:19:07.971Z,3.17
2023-04-14T09:21:29.645Z,3.43
2023-04-14T09:23:49.651Z,3.27
2023-04-14T09:25:58.786Z,3.33
2023-04-14T09:28:07.960Z,2.90
2023-04-14T09:30:17.823Z,3.50
2023-04-14T09:32:26.786Z,3.00
2023-04-14T09:34:35.690Z,3.00
2023-04-14T09:36:45.282Z,2.97
2023-04-14T09:38:56.289Z,3.67
2023-04-14T09:41:06.218Z,3.17
2023-04-14T09:43:27.854Z,3.50
2023-04-14T09:45:46.555Z,2.73
2023-04-14T09:48:08.369Z,2.73
2023-04-14T09:50:17.707Z,2.37
2023-04-14T09:52:38.312Z,3.30
2023-04-14T09:54:48.918Z,3.07
2023-04-14T09:56:57.958Z,3.40
2023-04-14T09:59:07.480Z,2.93
2023-04-14T10:01:17.331Z,2.83
2023-04-14T10:03:36.155Z,3.60
2023-04-14T10:05:48.820Z,3.30
2023-04-14T10:07:58.104Z,3.30
2023-04-14T10:10:12.089Z,2.80
2023-04-14T10:12:21.857Z,3.07
2023-04-14T10:14:31.110Z,3.03
2023-04-14T10:16:40.392Z,3.03
2023-04-14T10:18:49.152Z,3.27
2023-04-14T10:20:57.917Z,2.70
2023-04-14T10:23:07.550Z,3.50
2023-04-14T10:25:18.240Z,3.67
2023-04-14T10:27:30.238Z,3.60
2023-04-14T10:29:42.409Z,2.90
2023-04-14T10:31:53.910Z,2.87
2023-04-14T10:34:09.236Z,2.90
2023-04-14T10:36:26.084Z,2.73
2023-04-14T10:38:44.949Z,2.60
2023-04-14T10:40:57.046Z,2.90
2023-04-14T10:43:13.787Z,2.90
2023-04-14T10:45:23.232Z,2.90
2023-04-14T10:47:32.170Z,3.40
2023-04-14T10:49:41.545Z,3.13
2023-04-14T10:51:50.848Z,3.13
2023-04-14T10:54:00.092Z,3.40
2023-04-14T10:56:14.484Z,3.10
2023-04-14T10:58:25.649Z,3.03
2023-04-14T11:00:39.559Z,3.10
2023-04-14T11:02:56.876Z,2.77
2023-04-14T11:05:07.106Z,3.13
2023-04-14T11:07:22.902Z,3.07
2023-04-14T11:09:37.236Z,3.23
2023-04-14T11:11:47.640Z,2.67
2023-04-14T11:14:11.482Z,3.00
2023-04-14T11:16:29.133Z,3.30
2023-04-14T11:18:44.928Z,3.93
2023-04-14T11:20:55.147Z,2.90
2023-04-14T11:23:04.000Z,2.83
2023-04-14T11:25:13.846Z,3.23
2023-04-14T11:27:25.084Z,3.00
2023-04-14T11:29:34.480Z,3.00
2023-04-14T11:31:43.084Z,3.27
2023-04-14T11:33:52.097Z,3.17
2023-04-14T11:36:00.979Z,3.47
2023-04-14T11:38:11.399Z,3.60
2023-04-14T11:40:20.617Z,2.87
2023-04-14T11:42:30.945Z,3.17
2023-04-14T11:44:39.640Z,3.00
2023-04-14T11:46:48.839Z,3.37
2023-04-14T11:48:58.140Z,3.17
2023-04-14T11:51:07.649Z,3.37
2023-04-14T11:53:17.979Z,3.77
2023-04-14T11:55:26.934Z,3.47
2023-04-14T11:57:38.743Z,3.03
2023-04-14T11:59:47.999Z,2.63
2023-04-14T12:01:58.238Z,2.93
2023-04-14T12:04:08.064Z,3.00
2023-04-14T12:06:17.034Z,3.50
2023-04-14T12:08:26.143Z,3.40
2023-04-14T12:10:35.589Z,3.07
2023-04-14T12:12:46.620Z,3.53
2023-04-14T12:14:56.041Z,3.83
2023-04-14T12:17:04.855Z,3.63
2023-04-14T12:19:13.657Z,3.47
2023-04-14T12:21:22.738Z,3.07
2023-04-14T12:23:31.519Z,3.23
2023-04-14T12:25:41.069Z,2.70
2023-04-14T12:27:57.076Z,4.07
2023-04-14T12:30:07.003Z,3.40
2023-04-14T12:32:16.459Z,3.00
2023-04-14T12:34:26.970Z,3.57
2023-04-14T12:36:49.679Z,3.07
2023-04-14T12:38:59.873Z,2.73
2023-04-14T12:41:08.593Z,3.40
2023-04-14T12:43:28.816Z,3.40
2023-04-14T12:45:44.757Z,2.70
2023-04-14T12:47:54.777Z,3.23
2023-04-14T12:50:04.507Z,2.90
2023-04-14T12:52:33.313Z,2.73
2023-04-14T12:54:49.074Z,3.20
2023-04-14T12:56:57.681Z,3.27
2023-04-14T12:59:08.303Z,3.37
2023-04-14T13:01:19.478Z,3.33
2023-04-14T13:03:39.560Z,2.80
2023-04-14T13:05:48.700Z,2.93
2023-04-14T13:07:57.368Z,2.90
2023-04-14T13:10:06.791Z,3.20
2023-04-14T13:12:16.337Z,3.10
2023-04-14T13:14:26.505Z,2.80
2023-04-14T13:16:35.599Z,2.43
2023-04-14T13:18:44.764Z,3.20
2023-04-14T13:20:56.831Z,3.10
2023-04-14T13:23:06.760Z,2.70
2023-04-14T13:25:15.898Z,2.30
2023-04-14T13:27:24.620Z,3.47
2023-04-14T13:29:35.631Z,3.50
2023-04-14T13:31:44.823Z,3.20
2023-04-14T13:33:53.773Z,3.20
2023-04-14T13:36:03.238Z,2.90
2023-04-14T13:38:12.367Z,2.43
2023-04-14T13:40:21.382Z,2.93
2023-04-14T13:42:30.012Z,2.90
2023-04-14T13:44:39.913Z,3.13
2023-04-14T13:46:50.415Z,2.80
2023-04-14T13:48:58.948Z,2.57
2023-04-14T13:51:08.244Z,3.60
2023-04-14T13:53:17.369Z,3.40
2023-04-14T13:55:26.612Z,2.53
2023-04-14T13:57:35.612Z,1.87
2023-04-14T13:59:46.301Z,3.03
2023-04-14T14:01:55.119Z,3.33
2023-04-14T14:04:04.161Z,2.93
2023-04-14T14:06:12.979Z,2.60
2023-04-14T14:08:22.019Z,2.60
2023-04-14T14:10:31.042Z,3.03
2023-04-14T14:12:39.841Z,3.03
2023-04-14T14:14:50.178Z,3.13
2023-04-14T14:16:59.060Z,2.57
2023-04-14T14:19:10.036Z,2.97
2023-04-14T14:21:18.585Z,3.13
2023-04-14T14:23:27.679Z,3.23
2023-04-14T14:25:36.649Z,3.73
2023-04-14T14:27:45.855Z,2.80
2023-04-14T14:29:56.079Z,2.67
2023-04-14T14:32:04.692Z,2.13
2023-04-14T14:34:13.650Z,3.23
2023-04-14T14:36:23.462Z,3.20
2023-04-14T14:38:32.778Z,3.27
2023-04-14T14:40:41.596Z,3.10
2023-04-14T14:42:51.022Z,2.70
2023-04-14T14:45:01.837Z,3.73
2023-04-14T14:47:10.437Z,3.13
2023-04-14T14:49:18.944Z,3.13
2023-04-14T14:51:28.342Z,3.10
2023-04-14T14:53:37.360Z,3.30
2023-04-14T14:55:45.937Z,3.27
2023-04-14T14:57:54.773Z,3.57
2023-04-14T15:00:07.865Z,2.80
2023-04-14T15:02:17.196Z,3.23
2023-04-14T15:04:25.960Z,2.80
2023-04-14T15:06:35.408Z,3.33
2023-04-14T15:08:45.590Z,2.87
2023-04-14T15:10:54.384Z,3.23
2023-04-14T15:13:03.788Z,2.90
2023-04-14T15:15:14.267Z,3.53
2023-04-14T15:17:23.526Z,2.80
2023-04-14T15:19:32.989Z,2.77
2023-04-14T15:21:41.883Z,3.50
2023-04-14T15:23:50.650Z,3.50
2023-04-14T15:25:59.728Z,4.17
2023-04-14T15:28:08.319Z,3.37
2023-04-14T15:30:18.719Z,3.00
2023-04-14T15:32:28.025Z,3.53
2023-04-14T15:34:37.710Z,3.27
2023-04-14T15:36:47.159Z,3.20
2023-04-14T15:38:56.361Z,2.97
2023-04-14T15:41:05.995Z,3.97
2023-04-14T15:43:16.212Z,3.53
2023-04-14T15:45:27.117Z,3.33
2023-04-14T15:47:35.992Z,3.40
2023-04-14T15:49:46.640Z,3.07
2023-04-14T15:51:58.765Z,3.57
2023-04-14T15:54:07.703Z,3.23
2023-04-14T15:56:16.332Z,2.77
2023-04-14T15:58:25.338Z,3.13
2023-04-14T16:00:35.774Z,3.17
2023-04-14T16:02:46.227Z,3.80
2023-04-14T16:04:55.707Z,3.70
2023-04-14T16:07:05.093Z,3.20
2023-04-14T16:09:14.144Z,2.53
2023-04-14T16:11:24.019Z,2.73
2023-04-14T16:13:32.897Z,3.13
2023-04-14T16:15:43.574Z,2.57
2023-04-14T16:17:53.438Z,3.27
2023-04-14T16:20:03.098Z,3.47
2023-04-14T16:22:12.713Z,3.10
2023-04-14T16:24:21.544Z,3.53
2023-04-14T16:26:30.473Z,3.50
2023-04-14T16:28:38.939Z,2.80
2023-04-14T16:30:49.019Z,3.43
2023-04-14T16:32:57.833Z,3.07
2023-04-14T16:35:07.297Z,2.67
2023-04-14T16:37:16.452Z,3.30
2023-04-14T16:39:25.377Z,2.87
2023-04-14T16:41:34.570Z,3.33
2023-04-14T16:43:43.527Z,2.93
2023-04-14T16:45:53.640Z,3.20
2023-04-14T16:48:02.394Z,2.73
2023-04-14T16:50:11.613Z,3.33
2023-04-14T16:52:20.333Z,2.80
2023-04-14T16:54:29.817Z,3.20
2023-04-14T16:56:38.445Z,2.93
2023-04-14T16:58:47.088Z,3.67
2023-04-14T17:00:57.981Z,3.17
2023-04-14T17:03:07.201Z,3.17
2023-04-14T17:05:16.928Z,3.10
2023-04-14T17:07:26.168Z,3.93
2023-04-14T17:09:34.982Z,3.23
2023-04-14T17:11:44.718Z,3.63
2023-04-14T17:13:53.787Z,4.07
2023-04-14T17:16:09.029Z,4.13
2023-04-14T17:18:18.294Z,3.60
2023-04-14T17:20:27.482Z,3.60
2023-04-14T17:22:37.221Z,3.33
2023-04-14T17:24:47.637Z,3.57
2023-04-14T17:26:57.478Z,3.93
2023-04-14T17:29:06.143Z,2.97
2023-04-14T17:31:16.856Z,3.80
2023-04-14T17:33:27.585Z,3.53
2023-04-14T17:35:37.731Z,3.93
2023-04-14T17:37:46.797Z,3.50
2023-04-14T17:39:56.937Z,3.70
2023-04-14T17:42:05.661Z,3.57
2023-04-14T17:44:14.731Z,3.33
2023-04-14T17:46:33.919Z,3.40
2023-04-14T17:48:42.737Z,3.20
2023-04-14T17:50:51.967Z,3.03
2023-04-14T17:53:00.614Z,3.50
2023-04-14T17:55:10.725Z,3.93
2023-04-14T17:57:19.726Z,3.23
2023-04-14T17:59:28.580Z,3.33
2023-04-14T18:01:39.042Z,3.70
2023-04-14T18:03:47.836Z,3.80
2023-04-14T18:05:56.664Z,3.63
2023-04-14T18:08:05.535Z,3.47
2023-04-14T18:10:14.614Z,3.40
2023-04-14T18:12:24.192Z,3.47
2023-04-14T18:14:33.234Z,3.57
2023-04-14T18:16:44.283Z,3.10
2023-04-14T18:18:53.387Z,3.57
2023-04-14T18:21:02.259Z,3.40
2023-04-14T18:23:10.927Z,3.30
2023-04-14T18:25:20.263Z,3.37
2023-04-14T18:29:40.576Z,3.40
2023-04-14T18:31:51.384Z,3.53
2023-04-14T18:34:04.349Z,3.23
2023-04-14T18:36:13.296Z,3.27
2023-04-14T18:38:22.530Z,3.10
2023-04-14T18:40:31.712Z,3.27
2023-04-14T18:42:41.099Z,3.33
2023-04-14T18:44:50.096Z,2.70
2023-04-14T18:47:01.459Z,3.93
2023-04-14T18:49:10.204Z,3.23
2023-04-14T18:51:19.020Z,2.77
2023-04-14T18:53:27.611Z,2.93
2023-04-14T18:55:45.088Z,3.03
2023-04-14T18:57:55.076Z,3.17
2023-04-14T19:00:07.158Z,2.73
2023-04-14T19:02:17.672Z,2.97
2023-04-14T19:04:26.766Z,3.10
2023-04-14T19:06:35.640Z,3.37
2023-04-14T19:08:44.548Z,2.77
2023-04-14T19:10:54.040Z,2.87
2023-04-14T19:13:04.798Z,3.53
2023-04-14T19:15:13.723Z,3.07
2023-04-14T19:17:24.278Z,3.47
2023-04-14T19:19:36.568Z,2.60
2023-04-14T19:21:45.425Z,3.23
2023-04-14T19:23:56.672Z,3.03
2023-04-14T19:26:06.454Z,2.90
2023-04-14T19:28:16.898Z,3.30
2023-04-14T19:30:26.099Z,3.60
2023-04-14T19:32:37.642Z,3.13
2023-04-14T19:34:47.440Z,2.70
2023-04-14T19:36:57.940Z,3.10
2023-04-14T19:39:06.849Z,3.53
2023-04-14T19:41:15.905Z,3.07
2023-04-14T19:43:24.980Z,3.00
2023-04-14T19:45:33.540Z,3.23
2023-04-14T19:47:43.824Z,3.03
2023-04-14T19:49:53.770Z,3.30
2023-04-14T19:52:03.942Z,2.70
2023-04-14T19:54:12.963Z,3.07
2023-04-14T19:56:22.855Z,3.10
2023-04-14T19:58:31.604Z,2.83
2023-04-14T20:00:41.211Z,3.20
2023-04-14T20:02:52.606Z,2.80
2023-04-14T20:05:01.570Z,3.30
2023-04-14T20:07:10.450Z,3.13
2023-04-14T20:09:19.432Z,3.50
2023-04-14T20:11:29.065Z,3.60
2023-04-14T20:13:39.669Z,3.30
2023-04-14T20:15:49.487Z,2.93
2023-04-14T20:17:59.786Z,2.70
2023-04-14T20:20:09.751Z,3.10
2023-04-14T20:22:19.997Z,3.00
2023-04-14T20:24:28.858Z,2.90
2023-04-14T20:26:42.694Z,2.50
2023-04-14T20:28:52.223Z,3.20
2023-04-14T20:31:01.406Z,2.97
2023-04-14T20:33:12.306Z,2.93
2023-04-14T20:35:21.334Z,2.83
2023-04-14T20:37:30.423Z,2.73
2023-04-14T20:39:39.626Z,2.53
2023-04-14T20:41:48.865Z,2.80
2023-04-14T20:43:57.817Z,2.90
2023-04-14T20:46:06.480Z,3.33
2023-04-14T20:48:16.831Z,2.50
2023-04-14T20:50:26.724Z,3.27
2023-04-14T20:52:35.953Z,2.40
2023-04-14T20:54:45.031Z,2.93
2023-04-14T20:56:53.836Z,3.20
2023-04-14T20:59:03.117Z,2.67
2023-04-14T21:01:12.042Z,2.87
2023-04-14T21:03:24.100Z,3.13
2023-04-14T21:05:33.055Z,2.67
2023-04-14T21:07:42.254Z,2.13
2023-04-14T21:09:51.618Z,2.73
2023-04-14T21:12:14.531Z,3.23
2023-04-14T21:15:31.420Z,3.50
2023-04-14T21:16:54.177Z,3.20
2023-04-14T21:19:05.534Z,2.97
2023-04-14T21:21:15.086Z,2.27
2023-04-14T21:23:24.021Z,2.50
2023-04-14T21:25:35.361Z,3.00
2023-04-14T21:27:44.460Z,3.30
2023-04-14T21:29:53.931Z,2.60
2023-04-14T21:32:02.918Z,2.60
2023-04-14T21:34:13.211Z,2.50
2023-04-14T21:36:22.270Z,2.93
2023-04-14T21:38:31.031Z,2.47
2023-04-14T21:40:39.786Z,2.80
2023-04-14T21:42:48.538Z,3.10
2023-04-14T21:44:57.610Z,2.80
2023-04-14T21:47:06.531Z,2.37
2023-04-14T21:49:17.430Z,2.57
2023-04-14T21:51:26.354Z,3.03
2023-04-14T21:53:35.174Z,2.67
2023-04-14T21:55:43.956Z,2.47
2023-04-14T21:57:54.038Z,3.07
2023-04-14T22:00:04.242Z,2.73
2023-04-14T22:02:14.038Z,2.97
2023-04-14T22:04:35.398Z,2.63
2023-04-14T22:06:46.111Z,2.40
2023-04-14T22:08:55.075Z,2.43
2023-04-14T22:11:03.786Z,2.90
2023-04-14T22:13:12.511Z,2.63
2023-04-14T22:15:22.396Z,2.30
2023-04-14T22:17:31.713Z,3.07
2023-04-14T22:19:41.991Z,2.40
2023-04-14T22:21:50.640Z,2.60
2023-04-14T22:23:59.483Z,2.83
2023-04-14T22:26:08.275Z,2.47
2023-04-14T22:28:17.441Z,2.73
2023-04-14T22:30:26.534Z,2.40
2023-04-14T22:32:35.432Z,2.30
2023-04-14T22:34:45.778Z,2.73
2023-04-14T22:36:55.454Z,3.00
2023-04-14T22:39:05.960Z,3.03
2023-04-14T22:41:14.714Z,2.70
2023-04-14T22:43:23.587Z,2.43
2023-04-14T22:45:32.581Z,2.23
2023-04-14T22:47:41.539Z,2.73
2023-04-14T22:49:52.267Z,2.60
2023-04-14T22:52:01.105Z,2.60
2023-04-14T22:54:10.877Z,2.90
2023-04-14T22:56:19.625Z,3.43
2023-04-14T22:58:32.222Z,2.43
2023-04-14T23:00:41.353Z,2.57
2023-04-14T23:02:51.138Z,2.80
2023-04-14T23:05:01.420Z,3.03
2023-04-14T23:07:10.099Z,2.47
2023-04-14T23:09:19.127Z,2.87
2023-04-14T23:11:28.305Z,2.80
2023-04-14T23:13:36.947Z,3.07
2023-04-14T23:15:46.046Z,2.60
2023-04-14T23:17:55.108Z,2.57
2023-04-14T23:20:06.102Z,2.77
2023-04-14T23:22:15.997Z,2.47
2023-04-14T23:24:24.769Z,2.60
2023-04-14T23:26:33.274Z,2.90
2023-04-14T23:28:42.024Z,2.23
2023-04-14T23:30:51.066Z,3.20
2023-04-14T23:33:00.438Z,2.70
2023-04-14T23:35:11.580Z,2.77
2023-04-14T23:37:20.519Z,2.87
2023-04-14T23:39:29.309Z,2.97
2023-04-14T23:41:38.162Z,2.77
2023-04-14T23:43:49.255Z,2.43
2023-04-14T23:45:58.281Z,2.40
2023-04-14T23:48:07.852Z,3.13
2023-04-14T23:50:18.139Z,2.97
2023-04-14T23:52:27.596Z,2.50
2023-04-14T23:54:36.596Z,2.60
2023-04-14T23:56:45.568Z,2.70
2023-04-14T23:58:55.010Z,2.87
